| time (UTC) | temp C | wind direction | speed KPH | gust KPH | rain 1hr cm | rain 24hr cm | rain mn cm | humidity % | barometer mb |
| 20260503175913 | 17 | 79 | 4.8 | 19.3 | 0.00 | 0.00 | 0.00 | 39 | 1008.3 |
| 20260503175420 | 17 | 82 | 3.2 | 16.1 | 0.00 | 0.00 | 0.00 | 41 | 1008.4 |
| 20260503174930 | 16 | 128 | 3.2 | 16.1 | 0.00 | 0.00 | 0.00 | 41 | 1008.5 |
| 20260503174432 | 16 | 60 | 4.8 | 25.7 | 0.00 | 0.00 | 0.00 | 40 | 1008.5 |
| 20260503173938 | 16 | 60 | 4.8 | 25.7 | 0.00 | 0.00 | 0.00 | 42 | 1008.5 |
| 20260503173432 | 16 | 76 | 6.4 | 25.7 | 0.00 | 0.00 | 0.00 | 41 | 1008.6 |
| 20260503172930 | 16 | 60 | 6.4 | 25.7 | 0.00 | 0.00 | 0.00 | 40 | 1008.7 |
| 20260503172418 | 16 | 60 | 4.8 | 22.5 | 0.00 | 0.00 | 0.00 | 40 | 1008.9 |
| 20260503171906 | 16 | 60 | 4.8 | 22.5 | 0.00 | 0.00 | 0.00 | 43 | 1009.0 |
| 20260503171416 | 15 | 60 | 6.4 | 22.5 | 0.00 | 0.00 | 0.00 | 43 | 1009.1 |
| 20260503170902 | 15 | 79 | 6.4 | 19.3 | 0.00 | 0.00 | 0.00 | 41 | 1009.2 |
| 20260503170345 | 15 | 60 | 6.4 | 19.3 | 0.00 | 0.00 | 0.00 | 42 | 1009.2 |
| 20260503150503 | 15 | 69 | 3.2 | 22.5 | 0.00 | 0.00 | 0.00 | 40 | 1010.0 |
| 20260503130956 | 9 | 125 | 1.6 | 12.9 | 0.00 | 0.00 | 0.00 | 54 | 1010.8 |
| 20260503130455 | 8 | 105 | 1.6 | 12.9 | 0.00 | 0.00 | 0.00 | 54 | 1010.9 |
| 20260503110556 | 2 | 307 | 0.0 | 0.0 | 0.00 | 0.00 | 0.00 | 70 | 1011.2 |
| 20260503090455 | 1 | 148 | 0.0 | 0.0 | 0.00 | 0.00 | 0.00 | 74 | 1012.1 |
| 20260503081342 | 1 | 164 | 0.0 | 0.0 | 0.00 | 0.00 | 0.00 | 75 | 1012.2 |
| 20260503080836 | 1 | 164 | 0.0 | 0.0 | 0.00 | 0.00 | 0.00 | 75 | 1012.2 |
| 20260503080334 | 1 | 164 | 0.0 | 0.0 | 0.00 | 0.00 | 0.00 | 75 | 1012.3 |
| 20260503072037 | 1 | 122 | 0.0 | 0.0 | 0.00 | 0.00 | 0.00 | 75 | 1012.4 |
| 20260503071545 | 1 | 121 | 0.0 | 1.6 | 0.00 | 0.00 | 0.00 | 75 | 1012.4 |
| 20260503071025 | 1 | 146 | 0.0 | 0.0 | 0.00 | 0.00 | 0.00 | 75 | 1012.4 |
| 20260503070513 | 1 | 146 | 0.0 | 0.0 | 0.00 | 0.00 | 0.00 | 76 | 1012.3 |
| 20260503060237 | 1 | 144 | 0.0 | 0.0 | 0.00 | 0.00 | 0.00 | 75 | 1012.7 |
| 20260503054729 | 1 | 61 | 0.0 | 0.0 | 0.00 | 0.00 | 0.00 | 75 | 1012.8 |
| 20260503054223 | 1 | 90 | 0.0 | 0.0 | 0.00 | 0.00 | 0.00 | 74 | 1012.9 |
| 20260503053706 | 1 | 74 | 0.0 | 0.0 | 0.00 | 0.00 | 0.00 | 74 | 1012.8 |
| 20260503052553 | 2 | 74 | 0.0 | 0.0 | 0.00 | 0.00 | 0.00 | 72 | 1012.9 |
| 20260503051435 | 2 | 61 | 0.0 | 0.0 | 0.00 | 0.00 | 0.00 | 70 | 1013.0 |
| 20260503050918 | 2 | 94 | 0.0 | 0.0 | 0.00 | 0.00 | 0.00 | 70 | 1013.1 |
| 20260503050408 | 2 | 71 | 0.0 | 0.0 | 0.00 | 0.00 | 0.00 | 70 | 1013.0 |
| 20260503045229 | 2 | 62 | 0.0 | 0.0 | 0.00 | 0.00 | 0.00 | 69 | 1013.2 |
| 20260503044722 | 2 | 85 | 0.0 | 0.0 | 0.00 | 0.00 | 0.00 | 69 | 1013.3 |
| 20260503044215 | 2 | 82 | 0.0 | 0.0 | 0.00 | 0.00 | 0.00 | 69 | 1013.2 |
| 20260503043718 | 2 | 75 | 0.0 | 1.6 | 0.00 | 0.00 | 0.00 | 70 | 1013.2 |
| 20260503043220 | 2 | 66 | 0.0 | 0.0 | 0.00 | 0.00 | 0.00 | 69 | 1013.2 |
| 20260503042711 | 2 | 77 | 0.0 | 0.0 | 0.00 | 0.00 | 0.00 | 69 | 1013.3 |
| 20260503042158 | 2 | 75 | 0.0 | 0.0 | 0.00 | 0.00 | 0.00 | 69 | 1013.2 |
| 20260503041653 | 2 | 75 | 0.0 | 0.0 | 0.00 | 0.00 | 0.00 | 69 | 1013.2 |
| 20260503041203 | 2 | 61 | 0.0 | 0.0 | 0.00 | 0.00 | 0.00 | 69 | 1013.3 |
| 20260503040649 | 2 | 73 | 0.0 | 0.0 | 0.00 | 0.00 | 0.00 | 69 | 1013.4 |
| 20260503040155 | 2 | 72 | 0.0 | 0.0 | 0.00 | 0.00 | 0.00 | 69 | 1013.3 |
| 20260503034354 | 2 | 89 | 0.0 | 0.0 | 0.00 | 0.00 | 0.00 | 69 | 1013.5 |
| 20260503033859 | 2 | 79 | 0.0 | 0.0 | 0.00 | 0.00 | 0.00 | 69 | 1013.5 |
| 20260503033346 | 2 | 79 | 0.0 | 0.0 | 0.00 | 0.00 | 0.00 | 68 | 1013.5 |
| 20260503032852 | 2 | 73 | 0.0 | 0.0 | 0.00 | 0.00 | 0.00 | 68 | 1013.5 |
| 20260503032336 | 3 | 77 | 0.0 | 0.0 | 0.00 | 0.00 | 0.00 | 69 | 1013.6 |
| 20260503031846 | 3 | 61 | 0.0 | 0.0 | 0.00 | 0.00 | 0.00 | 69 | 1013.6 |
| 20260503030704 | 2 | 70 | 0.0 | 0.0 | 0.00 | 0.00 | 0.00 | 71 | 1013.6 |
| 20260503025544 | 2 | 110 | 0.0 | 0.0 | 0.00 | 0.00 | 0.00 | 74 | 1013.7 |
| 20260503025031 | 2 | 110 | 0.0 | 0.0 | 0.00 | 0.00 | 0.00 | 75 | 1013.7 |
| 20260503024523 | 1 | 110 | 0.0 | 0.0 | 0.00 | 0.00 | 0.00 | 77 | 1013.8 |
| 20260503024006 | 1 | 116 | 0.0 | 0.0 | 0.00 | 0.00 | 0.00 | 78 | 1013.8 |
| 20260503023504 | 1 | 115 | 0.0 | 0.0 | 0.00 | 0.00 | 0.00 | 80 | 1013.9 |
| 20260503023006 | 0 | 116 | 0.0 | 0.0 | 0.00 | 0.00 | 0.00 | 80 | 1013.9 |
| 20260503022511 | 0 | 143 | 0.0 | 0.0 | 0.00 | 0.00 | 0.00 | 79 | 1013.9 |
| 20260503022004 | 0 | 143 | 0.0 | 0.0 | 0.00 | 0.00 | 0.00 | 79 | 1014.0 |
| 20260503021511 | 0 | 143 | 0.0 | 0.0 | 0.00 | 0.00 | 0.00 | 80 | 1013.9 |
| 20260503020956 | 0 | 143 | 0.0 | 0.0 | 0.00 | 0.00 | 0.00 | 81 | 1013.9 |
| 20260503020446 | 0 | 143 | 0.0 | 0.0 | 0.00 | 0.00 | 0.00 | 81 | 1013.9 |
| 20260503015947 | 0 | 143 | 0.0 | 0.0 | 0.00 | 0.00 | 0.00 | 82 | 1013.9 |
| 20260503015434 | 0 | 143 | 0.0 | 0.0 | 0.00 | 0.00 | 0.00 | 81 | 1013.9 |
| 20260503014925 | 0 | 143 | 0.0 | 0.0 | 0.00 | 0.00 | 0.00 | 81 | 1013.9 |
| 20260503013824 | 0 | 143 | 0.0 | 0.0 | 0.00 | 0.00 | 0.00 | 80 | 1013.8 |
| 20260503013331 | 0 | 143 | 0.0 | 0.0 | 0.00 | 0.00 | 0.00 | 79 | 1013.8 |
| 20260503012820 | 0 | 143 | 0.0 | 0.0 | 0.00 | 0.00 | 0.00 | 79 | 1013.8 |
| 20260503012311 | 0 | 143 | 0.0 | 0.0 | 0.00 | 0.00 | 0.00 | 78 | 1013.7 |
| 20260503011755 | 0 | 143 | 0.0 | 0.0 | 0.00 | 0.00 | 0.00 | 76 | 1013.8 |
| 20260503011249 | 1 | 143 | 0.0 | 0.0 | 0.00 | 0.00 | 0.00 | 75 | 1013.7 |
| 20260503010118 | 1 | 143 | 0.0 | 0.0 | 0.00 | 0.00 | 0.00 | 71 | 1013.8 |
| 20260503005604 | 2 | 143 | 0.0 | 0.0 | 0.00 | 0.00 | 0.00 | 69 | 1013.8 |
| 20260503005046 | 2 | 143 | 0.0 | 0.0 | 0.00 | 0.00 | 0.00 | 67 | 1013.7 |
| 20260503003928 | 3 | 143 | 0.0 | 0.0 | 0.00 | 0.00 | 0.00 | 63 | 1013.6 |
| 20260503003419 | 4 | 143 | 0.0 | 0.0 | 0.00 | 0.00 | 0.00 | 60 | 1013.5 |
| 20260503002915 | 5 | 143 | 0.0 | 0.0 | 0.00 | 0.00 | 0.00 | 58 | 1013.6 |
| 20260503002404 | 5 | 143 | 0.0 | 0.0 | 0.00 | 0.00 | 0.00 | 54 | 1013.6 |
| 20260502235958 | 8 | 143 | 0.0 | 0.0 | 0.00 | 0.00 | 0.00 | 44 | 1013.7 |
| 20260502235506 | 8 | 113 | 0.0 | 0.0 | 0.00 | 0.00 | 0.00 | 43 | 1013.7 |
| 20260502235011 | 9 | 145 | 0.0 | 0.0 | 0.00 | 0.00 | 0.00 | 41 | 1013.7 |
| 20260502234456 | 9 | 141 | 0.0 | 0.0 | 0.00 | 0.00 | 0.00 | 42 | 1013.7 |
| 20260502233959 | 9 | 90 | 0.0 | 0.0 | 0.00 | 0.00 | 0.00 | 41 | 1013.7 |
| 20260502233502 | 8 | 153 | 0.0 | 1.6 | 0.00 | 0.00 | 0.00 | 42 | 1013.8 |
| 20260502233002 | 8 | 139 | 0.0 | 0.0 | 0.00 | 0.00 | 0.00 | 44 | 1013.8 |
| 20260502232507 | 8 | 172 | 0.0 | 0.0 | 0.00 | 0.00 | 0.00 | 44 | 1013.7 |
| 20260502231952 | 8 | 115 | 0.0 | 8.0 | 0.00 | 0.00 | 0.00 | 43 | 1013.8 |
| 20260502231502 | 8 | 145 | 0.0 | 6.4 | 0.00 | 0.00 | 0.00 | 44 | 1013.8 |
| 20260502230954 | 8 | 160 | 0.0 | 6.4 | 0.00 | 0.00 | 0.00 | 43 | 1013.8 |
| 20260502230459 | 8 | 152 | 0.0 | 1.6 | 0.00 | 0.00 | 0.00 | 43 | 1013.8 |
| 20260502225950 | 8 | 60 | 0.0 | 8.0 | 0.00 | 0.00 | 0.00 | 42 | 1013.8 |
| 20260502225437 | 9 | 131 | 0.0 | 4.8 | 0.00 | 0.00 | 0.00 | 42 | 1013.8 |
| 20260502224920 | 9 | 184 | 0.0 | 6.4 | 0.00 | 0.00 | 0.00 | 43 | 1013.8 |
| 20260502224410 | 9 | 154 | 0.0 | 6.4 | 0.00 | 0.00 | 0.00 | 43 | 1013.8 |
| 20260502223904 | 8 | 192 | 0.0 | 6.4 | 0.00 | 0.00 | 0.00 | 48 | 1013.8 |
| 20260502223409 | 8 | 156 | 0.0 | 3.2 | 0.00 | 0.00 | 0.00 | 46 | 1013.9 |
| 20260502222900 | 7 | 155 | 0.0 | 0.0 | 0.00 | 0.00 | 0.00 | 46 | 1013.9 |
| 20260502222353 | 7 | 172 | 0.0 | 4.8 | 0.00 | 0.00 | 0.00 | 45 | 1013.9 |
| 20260502221848 | 7 | 121 | 0.0 | 3.2 | 0.00 | 0.00 | 0.00 | 48 | 1013.9 |
| 20260502221336 | 7 | 166 | 1.6 | 0.0 | 0.00 | 0.00 | 0.00 | 46 | 1014.0 |
| 20260502220831 | 8 | 156 | 0.0 | 8.0 | 0.00 | 0.00 | 0.00 | 45 | 1014.0 |
| 20260502220339 | 8 | 140 | 0.0 | 4.8 | 0.00 | 0.00 | 0.00 | 46 | 1013.9 |
| 20260502215849 | 8 | 90 | 0.0 | 3.2 | 0.00 | 0.00 | 0.00 | 46 | 1013.9 |
| 20260502215335 | 8 | 195 | 0.0 | 0.0 | 0.00 | 0.00 | 0.00 | 46 | 1014.0 |
| 20260502214833 | 8 | 122 | 0.0 | 9.7 | 0.00 | 0.00 | 0.00 | 45 | 1014.0 |
| 20260502214313 | 8 | 107 | 0.0 | 8.0 | 0.00 | 0.00 | 0.00 | 47 | 1014.0 |
| 20260502213816 | 8 | 124 | 0.0 | 8.0 | 0.00 | 0.00 | 0.00 | 47 | 1014.0 |
| 20260502212655 | 8 | 73 | 1.6 | 9.7 | 0.00 | 0.00 | 0.00 | 47 | 1014.0 |
| 20260502212159 | 8 | 146 | 1.6 | 0.0 | 0.00 | 0.00 | 0.00 | 47 | 1014.0 |
| 20260502211645 | 8 | 158 | 0.0 | 8.0 | 0.00 | 0.00 | 0.00 | 48 | 1013.9 |
| 20260502211151 | 7 | 146 | 0.0 | 3.2 | 0.00 | 0.00 | 0.00 | 49 | 1014.0 |
| 20260502210659 | 7 | 167 | 1.6 | 8.0 | 0.00 | 0.00 | 0.00 | 49 | 1014.0 |
| 20260502210204 | 7 | 167 | 1.6 | 8.0 | 0.00 | 0.00 | 0.00 | 47 | 1014.1 |
| 20260502205703 | 7 | 180 | 1.6 | 6.4 | 0.00 | 0.00 | 0.00 | 48 | 1014.0 |
| 20260502205159 | 7 | 134 | 1.6 | 1.6 | 0.00 | 0.00 | 0.00 | 46 | 1014.0 |
| 20260502204643 | 7 | 186 | 1.6 | 8.0 | 0.00 | 0.00 | 0.00 | 48 | 1014.1 |
| 20260502204151 | 7 | 108 | 0.0 | 8.0 | 0.00 | 0.00 | 0.00 | 47 | 1014.1 |
| 20260502203659 | 7 | 114 | 0.0 | 8.0 | 0.00 | 0.00 | 0.00 | 48 | 1014.1 |
| 20260502203156 | 7 | 153 | 0.0 | 8.0 | 0.00 | 0.00 | 0.00 | 47 | 1014.3 |
| 20260502202701 | 7 | 167 | 0.0 | 8.0 | 0.00 | 0.00 | 0.00 | 46 | 1014.2 |
| 20260502202153 | 7 | 214 | 0.0 | 9.7 | 0.00 | 0.00 | 0.00 | 47 | 1014.2 |
| 20260502201647 | 7 | 165 | 1.6 | 9.7 | 0.00 | 0.00 | 0.00 | 47 | 1014.3 |
| 20260502200505 | 7 | 114 | 0.0 | 9.7 | 0.00 | 0.00 | 0.00 | 47 | 1014.4 |
| 20260502200009 | 7 | 139 | 0.0 | 4.8 | 0.00 | 0.00 | 0.00 | 46 | 1014.5 |
| 20260502195502 | 7 | 173 | 1.6 | 8.0 | 0.00 | 0.00 | 0.00 | 46 | 1014.5 |
| 20260502194336 | 8 | 80 | 1.6 | 9.7 | 0.00 | 0.00 | 0.00 | 46 | 1014.6 |
| 20260502193846 | 8 | 152 | 3.2 | 9.7 | 0.00 | 0.00 | 0.00 | 46 | 1014.6 |
| 20260502193354 | 8 | 142 | 1.6 | 8.0 | 0.00 | 0.00 | 0.00 | 45 | 1014.6 |
| 20260502191604 | 8 | 143 | 0.0 | 11.3 | 0.00 | 0.00 | 0.00 | 44 | 1014.8 |
| 20260502190431 | 8 | 196 | 1.6 | 11.3 | 0.00 | 0.00 | 0.00 | 50 | 1014.9 |
| 20260502185931 | 8 | 174 | 1.6 | 11.3 | 0.00 | 0.00 | 0.00 | 48 | 1015.0 |
| 20260502184800 | 8 | 204 | 1.6 | 16.1 | 0.00 | 0.00 | 0.00 | 46 | 1015.0 |
| 20260502184301 | 8 | 147 | 3.2 | 16.1 | 0.00 | 0.00 | 0.00 | 45 | 1015.0 |
| 20260502183756 | 8 | 154 | 3.2 | 16.1 | 0.00 | 0.00 | 0.00 | 46 | 1015.0 |
| 20260502182649 | 8 | 91 | 3.2 | 12.9 | 0.00 | 0.00 | 0.00 | 45 | 1015.1 |
| 20260502182147 | 8 | 134 | 3.2 | 9.7 | 0.00 | 0.00 | 0.00 | 44 | 1015.0 |
| 20260502181635 | 8 | 134 | 3.2 | 14.5 | 0.00 | 0.00 | 0.00 | 47 | 1015.2 |
| 20260502181143 | 7 | 206 | 3.2 | 14.5 | 0.00 | 0.00 | 0.00 | 45 | 1015.2 |
| 20260502180639 | 7 | 127 | 3.2 | 14.5 | 0.00 | 0.00 | 0.00 | 46 | 1015.2 |
| 20260502180140 | 8 | 147 | 1.6 | 14.5 | 0.00 | 0.00 | 0.00 | 45 | 1015.2 |